Maersk Weymouth — VRFS9 — position and weather

sailwx.info

Track history (hours):
 
Tides and Currents Weather Stations Pressure Air Temp Water Temp Dewpoint Dewpoint Depression Visibility Wind Speed Wind Dir Waves Ship Positions

Maersk Weymouth

Last reported at 2016-Sep-26 01:33 UTC. Time now 2016-Sep-27 00:17 UTC.
Position N 25°41' W 079°38'.

Length 175 m; draft 9.2 m.

Type: Cargo ship. MMSI: 477622100.

Date/timePositionNaut miles runAvg speedWind from/ knotsBaromVisibWave heightAir tempDewpointWater temp
2016-Sep-26 01:33N 25°41' W 079°38'1313.4
2016-Sep-26 00:34N 25°54' W 079°44'23 7.8
2016-Sep-25 21:33N 26°04' W 080°07'0 0.0
2016-Sep-25 17:30N 26°04' W 080°07'0 0.0
2016-Sep-25 16:30N 26°04' W 080°07'0 0.0
2016-Sep-25 15:30N 26°04' W 080°07'0 0.0
2016-Sep-25 14:33N 26°04' W 080°07'0 0.0
2016-Sep-25 12:33N 26°04' W 080°07'0 0.0
2016-Sep-25 11:33N 26°04' W 080°07'4 4.2
2016-Sep-25 10:33N 26°06' W 080°03'3 2.6
2016-Sep-25 09:33N 26°07' W 079°60'18 9.2
2016-Sep-25 07:33N 26°24' W 079°52'3511.7
2016-Sep-25 04:33N 26°59' W 079°45'28811.5
2016-Sep-24 03:34N 31°44' W 080°29'1312.9
2016-Sep-24 02:33N 31°54' W 080°39'1110.8
2016-Sep-24 01:33N 32°01' W 080°49'1111.5
2016-Sep-24 00:33N 32°06' W 081°01'6 1.2
2016-Sep-23 19:33N 32°07' W 081°08'0 0.0
2016-Sep-23 17:33N 32°07' W 081°08'0 0.0
2016-Sep-23 16:33N 32°07' W 081°08'0 0.0
2016-Sep-23 15:33N 32°07' W 081°08'0 0.0
2016-Sep-23 13:33N 32°07' W 081°08'2 0.6
2016-Sep-23 09:33N 32°05' W 081°06'26 8.6
2016-Sep-23 06:33N 31°58' W 080°37'50311.2
2016-Sep-21 09:28N 38°29' W 074°09'1516.0
2016-Sep-21 08:30N 38°44' W 074°06'4615.6
2016-Sep-21 05:33N 39°29' W 073°55'3115.4
2016-Sep-21 03:33N 39°60' W 073°51'1414.4
2016-Sep-21 02:33N 40°14' W 073°50'29 3.3
2016-Sep-20 17:33N 40°39' W 074°11'8 2.5
2016-Sep-20 14:33N 40°35' W 074°02'1312.6
2016-Sep-20 13:33N 40°27' W 073°50'50 9.9
2016-Sep-20 08:33N 39°38' W 073°44'1414.3
2016-Sep-20 07:33N 39°25' W 073°51'1514.7
2016-Sep-20 06:31N 39°11' W 073°59'5512.6
2016-Sep-20 02:09N 38°50' W 075°05'3513.6
2016-Sep-19 23:33N 39°21' W 075°26'36 9.0
2016-Sep-19 19:33N 39°54' W 075°08'0 0.0
2016-Sep-19 18:33N 39°54' W 075°08'0 0.0
2016-Sep-19 16:30N 39°54' W 075°08'0 0.0
2016-Sep-19 14:33N 39°54' W 075°08'0 0.0
2016-Sep-19 13:33N 39°54' W 075°08'0 0.0
2016-Sep-19 12:33N 39°54' W 075°08'0 0.0
2016-Sep-19 11:33N 39°54' W 075°08'7 3.4
2016-Sep-19 09:33N 39°51' W 075°16'2010.2
2016-Sep-19 07:33N 39°36' W 075°34'1413.8
2016-Sep-19 06:34N 39°23' W 075°28'4314.3
2016-Sep-19 03:33N 38°46' W 074°60'6 5.1
2016-Sep-19 02:26N 38°43' W 074°54'12 5.7
2016-Sep-19 00:21N 38°33' W 074°45'42 8.4
2016-Sep-18 19:24N 37°52' W 074°36'74615.0
2016-Sep-16 17:33N 26°15' W 079°53'17 8.0
2016-Sep-16 15:26N 26°04' W 080°07'0 0.0
2016-Sep-16 12:26N 26°04' W 080°07'4 1.2
2016-Sep-16 09:33N 26°06' W 080°03'6 2.8
2016-Sep-16 07:33N 26°01' W 079°59'35 8.7
2016-Sep-16 03:33N 25°26' W 080°00'  
Track history (hours):
 
Tides and Currents Weather Stations Pressure Air Temp Water Temp Dewpoint Dewpoint Depression Visibility Wind Speed Wind Dir Waves Ship Positions

Maersk Weymouth

Last reported at 2016-Sep-26 01:33 UTC. Time now 2016-Sep-27 00:17 UTC.
Position N 25°41' W 079°38'.

Length 175 m; draft 9.2 m.

Type: Cargo ship. MMSI: 477622100.

Date/timePositionNaut miles runAvg speedWind from/ knotsBaromVisibWave heightAir tempDewpointWater temp
2016-Sep-26 01:33N 25°41' W 079°38'1313.4
2016-Sep-26 00:34N 25°54' W 079°44'23 7.8
2016-Sep-25 21:33N 26°04' W 080°07'0 0.0
2016-Sep-25 17:30N 26°04' W 080°07'0 0.0
2016-Sep-25 16:30N 26°04' W 080°07'0 0.0
2016-Sep-25 15:30N 26°04' W 080°07'0 0.0
2016-Sep-25 14:33N 26°04' W 080°07'0 0.0
2016-Sep-25 12:33N 26°04' W 080°07'0 0.0
2016-Sep-25 11:33N 26°04' W 080°07'4 4.2
2016-Sep-25 10:33N 26°06' W 080°03'3 2.6
2016-Sep-25 09:33N 26°07' W 079°60'18 9.2
2016-Sep-25 07:33N 26°24' W 079°52'3511.7
2016-Sep-25 04:33N 26°59' W 079°45'28811.5
2016-Sep-24 03:34N 31°44' W 080°29'1312.9
2016-Sep-24 02:33N 31°54' W 080°39'1110.8
2016-Sep-24 01:33N 32°01' W 080°49'1111.5
2016-Sep-24 00:33N 32°06' W 081°01'6 1.2
2016-Sep-23 19:33N 32°07' W 081°08'0 0.0
2016-Sep-23 17:33N 32°07' W 081°08'0 0.0
2016-Sep-23 16:33N 32°07' W 081°08'0 0.0
2016-Sep-23 15:33N 32°07' W 081°08'0 0.0
2016-Sep-23 13:33N 32°07' W 081°08'2 0.6
2016-Sep-23 09:33N 32°05' W 081°06'26 8.6
2016-Sep-23 06:33N 31°58' W 080°37'50311.2
2016-Sep-21 09:28N 38°29' W 074°09'1516.0
2016-Sep-21 08:30N 38°44' W 074°06'4615.6
2016-Sep-21 05:33N 39°29' W 073°55'3115.4
2016-Sep-21 03:33N 39°60' W 073°51'1414.4
2016-Sep-21 02:33N 40°14' W 073°50'29 3.3
2016-Sep-20 17:33N 40°39' W 074°11'8 2.5
2016-Sep-20 14:33N 40°35' W 074°02'1312.6
2016-Sep-20 13:33N 40°27' W 073°50'50 9.9
2016-Sep-20 08:33N 39°38' W 073°44'1414.3
2016-Sep-20 07:33N 39°25' W 073°51'1514.7
2016-Sep-20 06:31N 39°11' W 073°59'5512.6
2016-Sep-20 02:09N 38°50' W 075°05'3513.6
2016-Sep-19 23:33N 39°21' W 075°26'36 9.0
2016-Sep-19 19:33N 39°54' W 075°08'0 0.0
2016-Sep-19 18:33N 39°54' W 075°08'0 0.0
2016-Sep-19 16:30N 39°54' W 075°08'0 0.0
2016-Sep-19 14:33N 39°54' W 075°08'0 0.0
2016-Sep-19 13:33N 39°54' W 075°08'0 0.0
2016-Sep-19 12:33N 39°54' W 075°08'0 0.0
2016-Sep-19 11:33N 39°54' W 075°08'7 3.4
2016-Sep-19 09:33N 39°51' W 075°16'2010.2
2016-Sep-19 07:33N 39°36' W 075°34'1413.8
2016-Sep-19 06:34N 39°23' W 075°28'4314.3
2016-Sep-19 03:33N 38°46' W 074°60'6 5.1
2016-Sep-19 02:26N 38°43' W 074°54'12 5.7
2016-Sep-19 00:21N 38°33' W 074°45'42 8.4
2016-Sep-18 19:24N 37°52' W 074°36'74615.0
2016-Sep-16 17:33N 26°15' W 079°53'17 8.0
2016-Sep-16 15:26N 26°04' W 080°07'0 0.0
2016-Sep-16 12:26N 26°04' W 080°07'4 1.2
2016-Sep-16 09:33N 26°06' W 080°03'6 2.8
2016-Sep-16 07:33N 26°01' W 079°59'35 8.7
2016-Sep-16 03:33N 25°26' W 080°00'  

Dump ship's entire track history